| Date | Time | Temp. (oF) | Dew Point (oF) | Rel. Hum. (%) | Press. (in.) | Wind Dir. | Wind Speed (mph) | Hourly Rainfall (in.) |
|
|---|---|---|---|---|---|---|---|---|---|
| 1 | 12/21 | 00:00 | 35 | 18 | 51 | 29.95 | WSW | 5 | 0.00 |
| 2 | 12/20 | 23:00 | 34 | 17 | 50 | 29.96 | W | 12 | 0.00 |
| 3 | 12/20 | 22:00 | 34 | 17 | 50 | 29.95 | WSW | 5 | 0.00 |
| 4 | 12/20 | 21:00 | 34 | 19 | 54 | 29.95 | W | 4 | 0.00 |
| 5 | 12/20 | 20:00 | 33 | 20 | 61 | 29.96 | W | 7 | 0.00 |
| 6 | 12/20 | 19:00 | 34 | 21 | 59 | 29.96 | WNW | 4 | 0.00 |
| 7 | 12/20 | 18:00 | 35 | 21 | 57 | 29.95 | W | 11 | 0.00 |
| 8 | 12/20 | 17:00 | 36 | 20 | 53 | 29.94 | SW | 7 | 0.00 |
| 9 | 12/20 | 16:00 | 38 | 20 | 49 | 29.91 | W | 3 | 0.00 |
| 10 | 12/20 | 15:00 | 40 | 21 | 48 | 29.89 | WNW | 10 | 0.00 |
| 11 | 12/20 | 14:00 | 40 | 23 | 51 | 29.88 | WNW | 9 | 0.00 |
| 12 | 12/20 | 13:00 | 41 | 23 | 50 | 29.87 | NW | 13 | 0.00 |
| 13 | 12/20 | 12:00 | 42 | 24 | 50 | 29.88 | WSW | 11 | 0.00 |
| 14 | 12/20 | 11:00 | 41 | 23 | 49 | 29.90 | W | 13 | 0.00 |
| 15 | 12/20 | 10:00 | 40 | 23 | 51 | 29.90 | WNW | 18 | 0.00 |
| 16 | 12/20 | 09:00 | 38 | 24 | 58 | 29.88 | SW | 7 | 0.00 |
| 17 | 12/20 | 08:00 | 38 | 24 | 57 | 29.86 | WNW | 14 | 0.00 |
| 18 | 12/20 | 07:00 | 40 | 28 | 63 | 29.82 | WNW | 12 | 0.00 |
| 19 | 12/20 | 06:00 | 41 | 31 | 70 | 29.78 | NW | 7 | 0.00 |
| 20 | 12/20 | 05:00 | 40 | 37 | 92 | 29.76 | W | 3 | 0.00 |
| 21 | 12/20 | 04:00 | 34 | 33 | 100 | 29.72 | NNE | 0 | 0.00 |
| 22 | 12/20 | 03:00 | 36 | 35 | 99 | 29.70 | W | 1 | 0.00 |
| 23 | 12/20 | 02:00 | 37 | 36 | 98 | 29.70 | WNW | 1 | 0.00 |
| 24 | 12/20 | 01:00 | 39 | 38 | 99 | 29.69 | W | 2 | 0.00 |